Time;durP1;ratioP1;P1;durP2;ratioP2;P2;SDS_P1;SDS_P2;PMS_P1;PMS_P2;Temp;Humidity;BMP_temperature;BMP_pressure;BME280_temperature;BME280_humidity;BME280_pressure;Samples;Min_cycle;Max_cycle;Signal;HPM_P1;HPM_P2
2023/08/21 00:02:11;;;;;;;;;1.20;1.20;;;;;;;;5029741;28;8796;-84
2023/08/21 00:04:38;;;;;;;;;1.80;1.80;;;;;;;;5030689;28;8967;-83
2023/08/21 00:07:06;;;;;;;;;2.80;1.80;;;;;;;;5030426;28;8874;-82
2023/08/21 00:09:35;;;;;;;;;1.80;0.20;;;;;;;;5030245;28;8922;-82
2023/08/21 00:12:02;;;;;;;;;0.80;0.80;;;;;;;;5030028;28;8844;-82
2023/08/21 00:14:29;;;;;;;;;1.40;1.40;;;;;;;;5030139;28;8849;-82
2023/08/21 00:16:56;;;;;;;;;1.60;1.60;;;;;;;;5030371;28;8856;-83
2023/08/21 00:19:24;;;;;;;;;1.60;0.60;;;;;;;;5029598;28;8898;-82
2023/08/21 00:21:51;;;;;;;;;1.20;1.20;;;;;;;;5018565;28;8856;-82
2023/08/21 00:24:19;;;;;;;;;1.00;1.00;;;;;;;;5029772;28;8891;-82
2023/08/21 00:26:48;;;;;;;;;0.80;0.80;;;;;;;;5030356;28;8840;-83
2023/08/21 00:29:15;;;;;;;;;0.80;0.80;;;;;;;;5030298;28;8905;-82
2023/08/21 00:31:42;;;;;;;;;0.00;0.00;;;;;;;;5030724;28;8809;-82
2023/08/21 00:34:09;;;;;;;;;2.80;1.60;;;;;;;;5032955;28;8864;-82
2023/08/21 00:36:36;;;;;;;;;1.80;1.80;;;;;;;;5029213;28;8878;-82
2023/08/21 00:39:04;;;;;;;;;1.20;1.20;;;;;;;;5031498;28;8898;-82
2023/08/21 00:41:33;;;;;;;;;0.80;0.80;;;;;;;;5035575;28;8907;-82
2023/08/21 00:44:02;;;;;;;;;1.20;1.20;;;;;;;;5035685;28;8864;-82
2023/08/21 00:46:29;;;;;;;;;0.60;0.60;;;;;;;;5034537;28;8934;-82
2023/08/21 00:48:57;;;;;;;;;1.00;1.00;;;;;;;;5028789;28;8848;-82
2023/08/21 00:51:24;;;;;;;;;1.20;1.00;;;;;;;;5028794;28;8880;-82
2023/08/21 00:53:51;;;;;;;;;1.40;1.40;;;;;;;;5027710;28;8918;-82
2023/08/21 00:56:19;;;;;;;;;1.40;1.40;;;;;;;;5029067;28;8864;-82
2023/08/21 00:58:46;;;;;;;;;2.00;2.00;;;;;;;;5028844;28;8867;-80
2023/08/21 01:01:17;;;;;;;;;3.20;1.60;;;;;;;;5028689;28;8781;-82
2023/08/21 01:03:44;;;;;;;;;2.00;2.00;;;;;;;;5028619;28;8874;-82
2023/08/21 01:06:12;;;;;;;;;1.60;0.20;;;;;;;;5028704;28;8870;-82
2023/08/21 01:08:44;;;;;;;;;1.00;1.00;;;;;;;;5028432;28;8840;-82
2023/08/21 01:11:16;;;;;;;;;0.80;0.80;;;;;;;;5028966;28;9619;-81
2023/08/21 01:13:52;;;;;;;;;2.40;2.40;;;;;;;;5022585;28;9623;-81
2023/08/21 01:16:22;;;;;;;;;0.80;0.80;;;;;;;;5026027;28;8886;-82
2023/08/21 01:18:49;;;;;;;;;0.80;0.80;;;;;;;;5031104;28;8844;-82
2023/08/21 01:21:17;;;;;;;;;6.00;2.20;;;;;;;;5028417;28;9658;-82
2023/08/21 01:23:45;;;;;;;;;3.00;1.40;;;;;;;;5029648;28;8867;-81
2023/08/21 01:26:12;;;;;;;;;1.00;1.00;;;;;;;;5028722;28;8965;-81
2023/08/21 01:28:40;;;;;;;;;2.00;2.00;;;;;;;;5029302;28;8864;-83
2023/08/21 01:31:11;;;;;;;;;1.80;1.80;;;;;;;;5027919;28;8821;-82
2023/08/21 01:33:43;;;;;;;;;3.80;0.80;;;;;;;;5028781;28;8857;-82
2023/08/21 01:36:13;;;;;;;;;4.20;1.80;;;;;;;;5028419;28;8856;-82
2023/08/21 01:38:40;;;;;;;;;1.20;1.20;;;;;;;;5029334;28;8848;-82
2023/08/21 01:41:09;;;;;;;;;1.40;1.40;;;;;;;;5029129;28;9163;-82
2023/08/21 01:43:36;;;;;;;;;4.00;1.00;;;;;;;;5028171;28;8856;-82
2023/08/21 01:46:04;;;;;;;;;2.60;0.60;;;;;;;;5028435;28;8851;-82
2023/08/21 01:48:31;;;;;;;;;3.40;1.20;;;;;;;;5027662;28;8937;-81
2023/08/21 01:50:58;;;;;;;;;2.00;1.00;;;;;;;;5028249;28;8846;-82
2023/08/21 01:53:26;;;;;;;;;1.60;1.00;;;;;;;;5027555;28;9654;-82
2023/08/21 01:55:53;;;;;;;;;1.60;1.60;;;;;;;;5028340;28;8856;-81
2023/08/21 01:58:21;;;;;;;;;2.20;0.80;;;;;;;;5031777;28;8883;-82
2023/08/21 02:00:49;;;;;;;;;0.60;0.60;;;;;;;;5034556;28;9100;-81
2023/08/21 02:03:16;;;;;;;;;0.80;0.80;;;;;;;;5034287;28;8864;-81
2023/08/21 02:05:43;;;;;;;;;1.00;1.00;;;;;;;;5035825;28;8872;-82
2023/08/21 02:08:13;;;;;;;;;0.60;0.60;;;;;;;;5037002;28;8844;-81
2023/08/21 02:10:49;;;;;;;;;2.40;1.00;;;;;;;;5037948;28;8881;-82
2023/08/21 02:13:16;;;;;;;;;1.20;1.20;;;;;;;;5040570;28;8860;-81
2023/08/21 02:15:45;;;;;;;;;1.20;1.20;;;;;;;;5041156;28;8890;-81
2023/08/21 02:18:12;;;;;;;;;1.80;1.80;;;;;;;;5039764;28;8871;-82
2023/08/21 02:20:39;;;;;;;;;0.40;0.40;;;;;;;;5040794;28;8872;-81
2023/08/21 02:23:07;;;;;;;;;1.20;1.20;;;;;;;;5039352;28;8871;-81
2023/08/21 02:25:34;;;;;;;;;1.00;1.00;;;;;;;;5034812;28;9023;-82
2023/08/21 02:28:01;;;;;;;;;2.20;2.20;;;;;;;;5034226;28;8868;-82
2023/08/21 02:30:29;;;;;;;;;1.40;1.00;;;;;;;;5032103;28;8862;-81
2023/08/21 02:32:57;;;;;;;;;2.40;2.00;;;;;;;;5022636;28;8967;-82
2023/08/21 02:35:25;;;;;;;;;1.80;1.80;;;;;;;;5034443;28;8890;-82
2023/08/21 02:37:52;;;;;;;;;0.00;0.00;;;;;;;;5026275;28;8867;-82
2023/08/21 02:40:19;;;;;;;;;2.00;0.60;;;;;;;;5030364;28;8880;-82
2023/08/21 02:42:49;;;;;;;;;1.00;1.00;;;;;;;;5034540;28;9613;-81
2023/08/21 02:45:16;;;;;;;;;1.60;1.60;;;;;;;;5033998;28;8894;-82
2023/08/21 02:47:44;;;;;;;;;1.80;1.80;;;;;;;;5034599;28;8888;-82
2023/08/21 02:50:13;;;;;;;;;0.00;0.00;;;;;;;;5037637;28;8852;-81
2023/08/21 02:52:40;;;;;;;;;2.00;2.00;;;;;;;;5037804;28;8865;-82
2023/08/21 02:55:09;;;;;;;;;2.80;1.40;;;;;;;;5034222;28;9672;-81
2023/08/21 02:57:36;;;;;;;;;0.40;0.40;;;;;;;;5021805;28;8872;-82
2023/08/21 03:00:04;;;;;;;;;2.00;2.00;;;;;;;;5034080;28;8872;-82
2023/08/21 03:02:32;;;;;;;;;0.80;0.80;;;;;;;;5032639;28;9643;-81
2023/08/21 03:04:59;;;;;;;;;1.00;1.00;;;;;;;;5027321;28;8906;-83
2023/08/21 03:07:28;;;;;;;;;2.20;1.20;;;;;;;;5033662;28;8892;-82
2023/08/21 03:09:55;;;;;;;;;1.60;1.60;;;;;;;;5031604;28;9754;-83
2023/08/21 03:12:23;;;;;;;;;3.60;0.80;;;;;;;;5031289;28;8857;-82
2023/08/21 03:14:50;;;;;;;;;1.20;1.20;;;;;;;;5030220;28;8860;-82
2023/08/21 03:17:17;;;;;;;;;1.00;1.00;;;;;;;;5030598;28;10151;-82
2023/08/21 03:19:45;;;;;;;;;2.60;1.00;;;;;;;;5030045;28;9003;-82
2023/08/21 03:22:12;;;;;;;;;2.40;2.00;;;;;;;;5031414;28;8868;-82
2023/08/21 03:24:43;;;;;;;;;2.40;1.00;;;;;;;;5031582;28;8868;-82
2023/08/21 03:27:10;;;;;;;;;1.60;1.60;;;;;;;;5030643;28;8844;-82
2023/08/21 03:29:37;;;;;;;;;1.60;0.20;;;;;;;;5031234;28;8894;-82
2023/08/21 03:32:05;;;;;;;;;1.40;1.40;;;;;;;;5029911;28;8917;-82
2023/08/21 03:34:32;;;;;;;;;1.80;1.80;;;;;;;;5032059;28;8895;-82
2023/08/21 03:36:59;;;;;;;;;2.80;1.40;;;;;;;;5030641;28;8872;-82
2023/08/21 03:39:26;;;;;;;;;0.20;0.20;;;;;;;;5030884;28;8893;-82
2023/08/21 03:41:55;;;;;;;;;1.00;1.00;;;;;;;;5031181;28;8846;-82
2023/08/21 03:44:22;;;;;;;;;2.00;2.00;;;;;;;;5032247;28;8864;-82
2023/08/21 03:46:49;;;;;;;;;4.00;2.00;;;;;;;;5033247;28;8894;-83
2023/08/21 03:49:16;;;;;;;;;0.75;0.75;;;;;;;;5033415;28;8842;-81
2023/08/21 03:51:45;;;;;;;;;1.00;1.00;;;;;;;;5036729;28;8977;-83
2023/08/21 03:54:15;;;;;;;;;0.80;0.80;;;;;;;;5036997;28;8963;-82
2023/08/21 03:56:42;;;;;;;;;1.50;1.00;;;;;;;;5035983;28;8872;-82
2023/08/21 03:59:10;;;;;;;;;3.00;1.25;;;;;;;;5033133;28;8896;-82
2023/08/21 04:01:40;;;;;;;;;1.00;1.00;;;;;;;;5029184;28;8832;-85
2023/08/21 04:04:11;;;;;;;;;0.80;0.80;;;;;;;;5030642;28;8872;-83
2023/08/21 04:09:19;;;;;;;;;3.75;3.75;;;;;;;;5030424;28;8902;-83
2023/08/21 04:11:46;;;;;;;;;3.00;3.00;;;;;;;;5029452;28;9292;-82
2023/08/21 04:14:15;;;;;;;;;5.25;3.00;;;;;;;;5029559;28;8921;-83
2023/08/21 04:16:42;;;;;;;;;4.00;2.00;;;;;;;;5030610;28;8868;-86
2023/08/21 04:19:09;;;;;;;;;2.25;0.75;;;;;;;;5031948;28;8848;-87
2023/08/21 04:21:37;;;;;;;;;1.50;1.50;;;;;;;;5030578;28;8852;-82
2023/08/21 04:24:04;;;;;;;;;3.00;2.00;;;;;;;;5028047;28;8872;-82
2023/08/21 04:26:31;;;;;;;;;2.75;1.00;;;;;;;;5030176;28;9698;-82
2023/08/21 04:28:58;;;;;;;;;0.75;0.75;;;;;;;;5030627;28;8886;-82
2023/08/21 04:31:27;;;;;;;;;2.00;2.00;;;;;;;;5029320;28;9607;-81
2023/08/21 04:33:54;;;;;;;;;4.25;1.25;;;;;;;;5029001;28;8890;-81
2023/08/21 04:36:22;;;;;;;;;2.00;2.00;;;;;;;;5028866;28;9002;-84
2023/08/21 04:38:49;;;;;;;;;1.25;1.25;;;;;;;;5028871;28;9654;-84
2023/08/21 04:41:16;;;;;;;;;1.00;1.00;;;;;;;;5029153;28;8860;-82
2023/08/21 04:43:43;;;;;;;;;0.75;0.75;;;;;;;;5029297;28;8856;-83
2023/08/21 04:46:13;;;;;;;;;2.25;2.00;;;;;;;;5029406;28;8898;-82
2023/08/21 04:48:48;;;;;;;;;1.00;1.00;;;;;;;;5029048;28;8880;-85
2023/08/21 04:51:19;;;;;;;;;2.25;1.75;;;;;;;;5029184;28;8887;-84
2023/08/21 04:53:47;;;;;;;;;2.00;2.00;;;;;;;;5029663;28;8938;-84
2023/08/21 04:56:16;;;;;;;;;3.75;1.75;;;;;;;;5017597;28;8864;-84
2023/08/21 04:58:47;;;;;;;;;2.50;2.50;;;;;;;;5029282;28;8864;-85
2023/08/21 05:01:14;;;;;;;;;2.25;1.25;;;;;;;;5029970;28;8812;-82
2023/08/21 05:03:45;;;;;;;;;3.00;1.50;;;;;;;;5030301;28;8875;-82
2023/08/21 05:06:12;;;;;;;;;2.75;2.00;;;;;;;;5029045;28;8860;-85
2023/08/21 05:08:41;;;;;;;;;1.50;1.00;;;;;;;;5029870;28;8876;-84
2023/08/21 05:11:09;;;;;;;;;2.50;2.00;;;;;;;;5028567;28;8856;-78
2023/08/21 05:13:38;;;;;;;;;3.00;2.00;;;;;;;;5028550;28;8988;-77
2023/08/21 05:16:06;;;;;;;;;2.50;2.50;;;;;;;;5027964;28;8844;-74
2023/08/21 05:18:33;;;;;;;;;2.75;2.75;;;;;;;;5027961;28;9072;-74
2023/08/21 05:21:01;;;;;;;;;2.00;1.25;;;;;;;;5027699;28;8872;-74
2023/08/21 05:23:28;;;;;;;;;3.00;3.00;;;;;;;;5030319;28;8860;-75
2023/08/21 05:25:56;;;;;;;;;2.75;1.00;;;;;;;;5029775;28;8848;-74
2023/08/21 05:28:23;;;;;;;;;3.50;3.50;;;;;;;;5030983;28;8891;-75
2023/08/21 05:30:50;;;;;;;;;1.75;1.75;;;;;;;;5030090;28;8838;-75
2023/08/21 05:33:17;;;;;;;;;3.50;1.75;;;;;;;;5029879;28;8864;-74
2023/08/21 05:35:44;;;;;;;;;3.50;2.50;;;;;;;;5027988;28;9796;-75
2023/08/21 05:38:13;;;;;;;;;3.25;3.25;;;;;;;;5023576;28;9658;-74
2023/08/21 05:40:42;;;;;;;;;2.75;2.75;;;;;;;;5028968;28;8883;-78
2023/08/21 05:43:10;;;;;;;;;2.25;2.25;;;;;;;;5027186;28;8949;-76
2023/08/21 05:45:37;;;;;;;;;5.25;3.50;;;;;;;;5028426;28;8866;-75
2023/08/21 05:48:05;;;;;;;;;3.50;3.50;;;;;;;;5027046;28;8852;-75
2023/08/21 05:50:37;;;;;;;;;2.75;2.75;;;;;;;;5027661;28;8868;-74
2023/08/21 05:53:04;;;;;;;;;2.75;2.75;;;;;;;;5026969;28;8864;-76
2023/08/21 05:55:33;;;;;;;;;3.50;3.50;;;;;;;;5026661;28;9229;-76
2023/08/21 05:58:03;;;;;;;;;3.00;3.00;;;;;;;;5027207;28;8879;-74
2023/08/21 06:00:30;;;;;;;;;4.50;2.00;;;;;;;;5026924;28;8717;-75
2023/08/21 06:02:57;;;;;;;;;3.00;3.00;;;;;;;;5026751;28;8848;-75
2023/08/21 06:05:24;;;;;;;;;3.50;2.75;;;;;;;;5027242;28;8846;-81
2023/08/21 06:07:52;;;;;;;;;2.75;2.75;;;;;;;;5027040;28;9657;-75
2023/08/21 06:10:19;;;;;;;;;5.25;3.25;;;;;;;;5027045;28;8874;-77
2023/08/21 06:12:51;;;;;;;;;2.00;2.00;;;;;;;;5027252;28;8968;-75
2023/08/21 06:15:18;;;;;;;;;3.75;3.75;;;;;;;;5026948;28;8844;-75
2023/08/21 06:17:45;;;;;;;;;7.50;3.75;;;;;;;;5026521;28;8830;-74
2023/08/21 06:20:13;;;;;;;;;2.00;2.00;;;;;;;;5026988;28;8859;-77
2023/08/21 06:22:41;;;;;;;;;6.00;4.50;;;;;;;;5015004;28;8882;-74
2023/08/21 06:25:09;;;;;;;;;7.00;5.25;;;;;;;;5026556;28;9429;-75
2023/08/21 06:27:36;;;;;;;;;6.25;3.75;;;;;;;;5026820;28;8888;-73
2023/08/21 06:30:06;;;;;;;;;7.00;5.75;;;;;;;;5025723;28;8871;-73
2023/08/21 06:32:35;;;;;;;;;5.00;5.00;;;;;;;;5027206;28;8955;-74
2023/08/21 06:35:03;;;;;;;;;7.00;5.50;;;;;;;;5026408;28;8850;-74
2023/08/21 06:37:30;;;;;;;;;5.75;5.25;;;;;;;;5023413;28;8852;-72
2023/08/21 06:39:57;;;;;;;;;6.00;6.00;;;;;;;;5026332;28;8864;-73
2023/08/21 06:42:24;;;;;;;;;4.00;4.00;;;;;;;;5026807;28;8852;-74
2023/08/21 06:44:52;;;;;;;;;5.50;5.00;;;;;;;;5027598;28;8842;-74
2023/08/21 06:47:20;;;;;;;;;5.75;5.25;;;;;;;;5030427;28;8879;-74
2023/08/21 06:49:48;;;;;;;;;4.50;4.50;;;;;;;;5030379;28;8894;-73
2023/08/21 06:52:15;;;;;;;;;4.75;4.75;;;;;;;;5030768;28;8893;-74
2023/08/21 06:54:42;;;;;;;;;6.75;6.75;;;;;;;;5030517;28;8890;-73
2023/08/21 06:57:10;;;;;;;;;7.00;6.00;;;;;;;;5032673;28;8889;-74
2023/08/21 06:59:38;;;;;;;;;6.80;5.00;;;;;;;;5033582;28;8910;-76
2023/08/21 07:02:06;;;;;;;;;9.00;7.25;;;;;;;;5033427;28;8916;-76
2023/08/21 07:04:37;;;;;;;;;7.00;5.80;;;;;;;;5033786;28;8860;-74
2023/08/21 07:07:09;;;;;;;;;5.40;5.40;;;;;;;;5034314;28;8853;-75
2023/08/21 07:09:36;;;;;;;;;6.60;6.60;;;;;;;;5031254;28;8864;-74
2023/08/21 07:12:04;;;;;;;;;7.40;6.00;;;;;;;;5030069;28;8875;-75
2023/08/21 07:14:32;;;;;;;;;5.60;5.60;;;;;;;;5029484;28;8910;-73
2023/08/21 07:16:59;;;;;;;;;5.40;5.40;;;;;;;;5029728;28;8860;-74
2023/08/21 07:19:26;;;;;;;;;3.60;3.60;;;;;;;;5029555;28;8910;-74
2023/08/21 07:21:55;;;;;;;;;6.60;5.80;;;;;;;;5029907;28;8868;-73
2023/08/21 07:24:23;;;;;;;;;6.20;6.20;;;;;;;;5017186;28;8868;-73
2023/08/21 07:26:50;;;;;;;;;5.00;5.00;;;;;;;;5029524;28;8882;-74
2023/08/21 07:29:19;;;;;;;;;6.00;4.20;;;;;;;;5029404;28;8860;-74
2023/08/21 07:31:46;;;;;;;;;1.80;1.80;;;;;;;;5029285;28;8796;-75
2023/08/21 07:34:14;;;;;;;;;5.40;3.80;;;;;;;;5029343;28;8844;-75
2023/08/21 07:36:41;;;;;;;;;6.60;3.60;;;;;;;;5029513;28;8887;-74
2023/08/21 07:39:09;;;;;;;;;3.00;3.00;;;;;;;;5029653;28;8861;-74
2023/08/21 07:41:36;;;;;;;;;8.20;4.00;;;;;;;;5029480;28;8860;-74
2023/08/21 07:44:04;;;;;;;;;3.20;3.20;;;;;;;;5029288;28;8844;-74
2023/08/21 07:46:31;;;;;;;;;4.80;3.60;;;;;;;;5029053;28;8870;-75
2023/08/21 07:48:58;;;;;;;;;3.40;3.40;;;;;;;;5029542;28;8844;-74
2023/08/21 07:51:25;;;;;;;;;4.20;4.20;;;;;;;;5028925;28;8852;-74
2023/08/21 07:53:53;;;;;;;;;3.00;2.60;;;;;;;;5029628;28;8899;-74
2023/08/21 07:56:21;;;;;;;;;2.20;2.20;;;;;;;;5028053;28;8848;-74
2023/08/21 07:58:51;;;;;;;;;3.00;3.00;;;;;;;;5029631;28;8868;-74
2023/08/21 08:01:20;;;;;;;;;2.40;2.40;;;;;;;;5028723;28;8831;-75
2023/08/21 08:03:49;;;;;;;;;2.00;2.00;;;;;;;;5030343;28;8848;-79
2023/08/21 08:06:16;;;;;;;;;1.40;1.40;;;;;;;;5029179;28;8856;-77
2023/08/21 08:08:43;;;;;;;;;1.80;1.80;;;;;;;;5029862;28;8871;-75
2023/08/21 08:11:10;;;;;;;;;0.80;0.80;;;;;;;;5028773;28;8837;-75
2023/08/21 08:13:39;;;;;;;;;2.00;2.00;;;;;;;;5029410;28;8887;-76
2023/08/21 08:16:09;;;;;;;;;3.20;3.20;;;;;;;;5028929;28;8841;-75
2023/08/21 08:18:37;;;;;;;;;1.00;1.00;;;;;;;;5029211;28;8874;-76
2023/08/21 08:21:04;;;;;;;;;0.00;0.00;;;;;;;;5027348;28;8840;-76
2023/08/21 08:23:31;;;;;;;;;2.80;1.80;;;;;;;;5028587;28;8888;-73
2023/08/21 08:25:59;;;;;;;;;1.20;1.20;;;;;;;;5028196;28;8902;-73
2023/08/21 08:28:26;;;;;;;;;2.40;2.40;;;;;;;;5028884;28;8886;-73
2023/08/21 08:30:55;;;;;;;;;2.00;2.00;;;;;;;;5029180;28;8800;-73
2023/08/21 08:33:22;;;;;;;;;1.60;1.60;;;;;;;;5031333;28;8874;-72
2023/08/21 08:35:49;;;;;;;;;1.00;1.00;;;;;;;;5032532;28;8852;-74
2023/08/21 08:38:17;;;;;;;;;1.60;1.60;;;;;;;;5027499;28;8848;-73
2023/08/21 08:40:47;;;;;;;;;1.20;1.20;;;;;;;;5032422;28;8860;-73
2023/08/21 08:43:15;;;;;;;;;2.00;2.00;;;;;;;;5031681;28;8902;-79
2023/08/21 08:45:42;;;;;;;;;1.80;1.80;;;;;;;;5029593;28;8876;-83
2023/08/21 08:48:11;;;;;;;;;1.80;1.80;;;;;;;;5027069;28;8828;-74
2023/08/21 08:50:39;;;;;;;;;3.20;3.20;;;;;;;;5028095;28;8933;-79
2023/08/21 08:53:08;;;;;;;;;2.20;2.20;;;;;;;;5027912;28;9583;-73
2023/08/21 08:55:36;;;;;;;;;3.80;3.00;;;;;;;;5028405;28;8856;-75
2023/08/21 08:58:06;;;;;;;;;3.80;2.00;;;;;;;;5027772;28;8852;-75
2023/08/21 09:00:39;;;;;;;;;2.20;2.20;;;;;;;;5028057;28;8875;-75
2023/08/21 09:03:06;;;;;;;;;1.80;1.80;;;;;;;;5027507;28;8844;-73
2023/08/21 09:05:35;;;;;;;;;3.00;3.00;;;;;;;;5028615;28;8886;-72
2023/08/21 09:08:11;;;;;;;;;1.80;1.80;;;;;;;;5027536;28;8970;-72
2023/08/21 09:10:39;;;;;;;;;2.00;2.00;;;;;;;;5028566;28;8860;-75
2023/08/21 09:13:14;;;;;;;;;2.20;2.20;;;;;;;;5028209;28;8857;-73
2023/08/21 09:15:43;;;;;;;;;2.20;2.20;;;;;;;;5027507;28;8888;-72
2023/08/21 09:18:11;;;;;;;;;2.40;1.00;;;;;;;;5028026;28;8859;-73
2023/08/21 09:20:40;;;;;;;;;1.80;1.80;;;;;;;;5027548;28;9650;-73
2023/08/21 09:23:07;;;;;;;;;2.00;1.40;;;;;;;;5027707;28;8876;-77
2023/08/21 09:25:40;;;;;;;;;1.00;1.00;;;;;;;;5027462;28;8837;-74
2023/08/21 09:28:07;;;;;;;;;0.80;0.00;;;;;;;;5027650;28;8887;-73
2023/08/21 09:30:49;;;;;;;;;0.80;0.80;;;;;;;;5027090;28;8768;-78
2023/08/21 09:33:18;;;;;;;;;0.20;0.20;;;;;;;;5027564;28;8880;-73
2023/08/21 09:35:47;;;;;;;;;0.00;0.00;;;;;;;;5027735;28;8854;-73
2023/08/21 09:38:15;;;;;;;;;0.40;0.40;;;;;;;;5027058;28;8876;-73
2023/08/21 09:40:42;;;;;;;;;0.00;0.00;;;;;;;;5027718;28;8921;-73
2023/08/21 09:43:11;;;;;;;;;1.00;1.00;;;;;;;;5026607;28;9667;-74
2023/08/21 09:45:38;;;;;;;;;1.60;1.00;;;;;;;;5027524;28;9678;-73
2023/08/21 09:48:08;;;;;;;;;0.60;0.60;;;;;;;;5027602;28;8874;-77
2023/08/21 09:50:36;;;;;;;;;0.00;0.00;;;;;;;;5027364;28;8852;-74
2023/08/21 09:53:06;;;;;;;;;0.40;0.40;;;;;;;;5026936;28;8856;-79
2023/08/21 09:55:37;;;;;;;;;0.00;0.00;;;;;;;;5027841;28;8860;-76
2023/08/21 09:58:04;;;;;;;;;0.00;0.00;;;;;;;;5027062;28;9735;-72
2023/08/21 10:00:33;;;;;;;;;0.00;0.00;;;;;;;;5020886;28;8776;-73
2023/08/21 10:03:03;;;;;;;;;0.00;0.00;;;;;;;;5038879;28;8837;-87
2023/08/21 10:05:31;;;;;;;;;0.00;0.00;;;;;;;;5028742;28;8856;-72
2023/08/21 10:08:01;;;;;;;;;0.00;0.00;;;;;;;;5028183;28;8886;-72
2023/08/21 10:10:31;;;;;;;;;0.00;0.00;;;;;;;;5029627;28;8915;-72
2023/08/21 10:12:59;;;;;;;;;0.00;0.00;;;;;;;;5029494;28;8954;-73
2023/08/21 10:15:27;;;;;;;;;0.00;0.00;;;;;;;;5029522;28;8864;-72
2023/08/21 10:17:54;;;;;;;;;0.00;0.00;;;;;;;;5029390;28;8902;-73
2023/08/21 10:20:23;;;;;;;;;0.00;0.00;;;;;;;;5032023;28;8864;-74
2023/08/21 10:22:54;;;;;;;;;0.00;0.00;;;;;;;;5032828;28;8886;-74
2023/08/21 10:25:22;;;;;;;;;0.00;0.00;;;;;;;;5031843;28;9634;-73
2023/08/21 10:27:54;;;;;;;;;0.00;0.00;;;;;;;;5032818;28;8864;-75
2023/08/21 10:30:22;;;;;;;;;0.00;0.00;;;;;;;;5031480;28;9118;-75
2023/08/21 10:32:51;;;;;;;;;0.00;0.00;;;;;;;;5031740;28;8852;-85
2023/08/21 10:35:22;;;;;;;;;0.00;0.00;;;;;;;;5031432;28;8846;-77
2023/08/21 10:38:11;;;;;;;;;0.00;0.00;;;;;;;;5031186;28;8986;-85
2023/08/21 10:40:39;;;;;;;;;1.00;0.00;;;;;;;;5030658;28;8870;-81
2023/08/21 10:43:40;;;;;;;;;0.00;0.00;;;;;;;;5030788;28;9781;-78
2023/08/21 10:46:07;;;;;;;;;1.00;0.00;;;;;;;;5024151;28;8868;-73
2023/08/21 10:48:34;;;;;;;;;0.60;0.00;;;;;;;;5030801;28;8888;-77
2023/08/21 10:51:04;;;;;;;;;0.00;0.00;;;;;;;;5030512;28;8844;-75
2023/08/21 10:53:31;;;;;;;;;0.00;0.00;;;;;;;;5029151;28;8852;-76
2023/08/21 10:56:00;;;;;;;;;5.60;4.40;;;;;;;;5029474;28;8886;-75
2023/08/21 10:58:29;;;;;;;;;0.00;0.00;;;;;;;;5030237;28;8870;-74
2023/08/21 11:01:00;;;;;;;;;0.40;0.40;;;;;;;;5029185;28;8796;-73
2023/08/21 11:03:27;;;;;;;;;0.00;0.00;;;;;;;;5018966;28;8898;-74
2023/08/21 11:06:07;;;;;;;;;1.00;1.00;;;;;;;;5029631;28;8887;-75
2023/08/21 11:08:36;;;;;;;;;0.80;0.80;;;;;;;;5030369;28;8844;-73
2023/08/21 11:11:04;;;;;;;;;1.20;0.00;;;;;;;;5029481;28;8848;-75
2023/08/21 11:13:33;;;;;;;;;0.00;0.00;;;;;;;;5030400;28;8868;-74
2023/08/21 11:16:00;;;;;;;;;4.80;4.80;;;;;;;;5028955;28;8860;-76
2023/08/21 11:18:35;;;;;;;;;7.80;7.40;;;;;;;;5030425;28;8852;-75
2023/08/21 11:21:06;;;;;;;;;2.80;2.80;;;;;;;;5029590;28;8859;-78
2023/08/21 11:23:34;;;;;;;;;3.00;3.00;;;;;;;;5030365;28;9018;-75
2023/08/21 11:26:02;;;;;;;;;1.00;1.00;;;;;;;;5017623;28;8852;-75
2023/08/21 11:28:30;;;;;;;;;6.00;6.00;;;;;;;;5030012;28;8878;-81
2023/08/21 11:31:02;;;;;;;;;2.20;0.60;;;;;;;;5029207;28;8817;-83
2023/08/21 11:33:30;;;;;;;;;0.00;0.00;;;;;;;;5030639;28;9641;-82
2023/08/21 11:35:58;;;;;;;;;0.00;0.00;;;;;;;;5031656;28;8868;-87
2023/08/21 11:38:27;;;;;;;;;0.00;0.00;;;;;;;;5028240;28;9631;-87
2023/08/21 11:40:56;;;;;;;;;4.20;4.20;;;;;;;;5034522;28;8903;-87
2023/08/21 11:43:36;;;;;;;;;17.80;14.20;;;;;;;;5036859;28;8860;-83
2023/08/21 11:46:10;;;;;;;;;0.00;0.00;;;;;;;;5036079;28;8875;-84
2023/08/21 11:48:39;;;;;;;;;2.60;2.60;;;;;;;;5036339;28;8872;-88
2023/08/21 11:51:07;;;;;;;;;2.20;1.00;;;;;;;;5037182;28;8999;-88
2023/08/21 11:53:36;;;;;;;;;0.00;0.00;;;;;;;;5032159;28;8875;-86
2023/08/21 11:56:03;;;;;;;;;0.80;0.80;;;;;;;;5030911;28;8880;-89
2023/08/21 11:58:31;;;;;;;;;0.00;0.00;;;;;;;;5031578;28;8926;-89
2023/08/21 12:01:09;;;;;;;;;1.00;0.00;;;;;;;;5030517;28;8788;-89
2023/08/21 12:03:40;;;;;;;;;0.20;0.20;;;;;;;;5030630;28;8960;-87
2023/08/21 12:06:08;;;;;;;;;0.00;0.00;;;;;;;;5030716;28;9682;-80
2023/08/21 12:08:35;;;;;;;;;0.00;0.00;;;;;;;;5029168;28;8887;-81
2023/08/21 12:11:03;;;;;;;;;0.00;0.00;;;;;;;;5029375;28;8836;-91
2023/08/21 12:13:30;;;;;;;;;0.00;0.00;;;;;;;;5029605;28;8934;-82
2023/08/21 12:15:57;;;;;;;;;0.00;0.00;;;;;;;;5029227;28;8879;-81
2023/08/21 12:18:26;;;;;;;;;3.80;1.40;;;;;;;;5030386;28;8852;-79
2023/08/21 12:20:56;;;;;;;;;0.20;0.20;;;;;;;;5030557;28;8980;-79
2023/08/21 12:23:23;;;;;;;;;0.00;0.00;;;;;;;;5031229;28;8868;-80
2023/08/21 12:25:51;;;;;;;;;0.20;0.00;;;;;;;;5028336;28;8840;-80
2023/08/21 12:28:18;;;;;;;;;0.00;0.00;;;;;;;;5029571;28;9650;-80
2023/08/21 12:30:47;;;;;;;;;0.00;0.00;;;;;;;;5028171;28;9584;-77
2023/08/21 12:33:14;;;;;;;;;0.00;0.00;;;;;;;;5028480;28;8902;-79
2023/08/21 12:35:42;;;;;;;;;0.00;0.00;;;;;;;;5028489;28;8838;-81
2023/08/21 12:38:13;;;;;;;;;0.00;0.00;;;;;;;;5028172;28;8836;-85
2023/08/21 12:40:40;;;;;;;;;0.00;0.00;;;;;;;;5010521;28;8866;-85
2023/08/21 12:43:07;;;;;;;;;0.00;0.00;;;;;;;;5023681;28;8878;-83
2023/08/21 12:45:36;;;;;;;;;0.00;0.00;;;;;;;;5029134;28;8860;-83
2023/08/21 12:48:04;;;;;;;;;0.00;0.00;;;;;;;;5028175;28;8953;-84
2023/08/21 12:50:32;;;;;;;;;0.00;0.00;;;;;;;;5029131;28;9846;-84
2023/08/21 12:53:03;;;;;;;;;0.60;0.60;;;;;;;;5027980;28;8848;-82
2023/08/21 12:55:30;;;;;;;;;0.00;0.00;;;;;;;;5028977;28;8864;-84
2023/08/21 12:57:58;;;;;;;;;0.00;0.00;;;;;;;;5028382;28;8866;-81
2023/08/21 13:00:25;;;;;;;;;0.00;0.00;;;;;;;;5028350;28;8826;-80
2023/08/21 13:02:52;;;;;;;;;0.00;0.00;;;;;;;;5028607;28;8864;-83
2023/08/21 13:05:20;;;;;;;;;0.00;0.00;;;;;;;;5028806;28;8903;-82
2023/08/21 13:07:47;;;;;;;;;0.00;0.00;;;;;;;;5028307;28;8974;-83
2023/08/21 13:10:17;;;;;;;;;0.00;0.00;;;;;;;;5029535;28;8906;-80
2023/08/21 13:12:45;;;;;;;;;0.00;0.00;;;;;;;;5031936;28;8863;-82
2023/08/21 13:15:12;;;;;;;;;0.00;0.00;;;;;;;;5031510;28;8864;-84
2023/08/21 13:17:40;;;;;;;;;0.00;0.00;;;;;;;;5032842;28;8862;-84
2023/08/21 13:20:10;;;;;;;;;0.40;0.00;;;;;;;;5033425;28;8906;-89
2023/08/21 13:22:49;;;;;;;;;0.00;0.00;;;;;;;;5033290;28;8878;-83
2023/08/21 13:25:19;;;;;;;;;0.00;0.00;;;;;;;;5034149;28;8854;-81
2023/08/21 13:27:49;;;;;;;;;0.60;0.00;;;;;;;;5029792;28;8872;-83
2023/08/21 13:30:17;;;;;;;;;0.00;0.00;;;;;;;;5026495;28;8856;-85
2023/08/21 13:32:44;;;;;;;;;4.60;2.00;;;;;;;;5028622;28;8898;-86
2023/08/21 13:35:12;;;;;;;;;0.00;0.00;;;;;;;;5028124;28;8848;-86
2023/08/21 13:37:40;;;;;;;;;0.20;0.20;;;;;;;;5028294;28;9870;-83
2023/08/21 13:40:10;;;;;;;;;0.00;0.00;;;;;;;;5027981;28;8895;-83
2023/08/21 13:42:49;;;;;;;;;0.40;0.00;;;;;;;;5028528;28;8875;-83
2023/08/21 13:45:17;;;;;;;;;0.00;0.00;;;;;;;;5028005;28;8858;-82
2023/08/21 13:47:47;;;;;;;;;1.00;0.00;;;;;;;;5028233;28;8982;-83
2023/08/21 13:50:15;;;;;;;;;0.80;0.00;;;;;;;;5027788;28;8864;-83
2023/08/21 13:52:43;;;;;;;;;0.00;0.00;;;;;;;;5029009;28;8890;-82
2023/08/21 13:55:11;;;;;;;;;0.00;0.00;;;;;;;;5032622;28;9693;-84
2023/08/21 13:57:39;;;;;;;;;1.00;0.00;;;;;;;;5029275;28;8871;-90
2023/08/21 14:00:11;;;;;;;;;0.00;0.00;;;;;;;;5027949;28;8875;-80
2023/08/21 14:02:39;;;;;;;;;0.00;0.00;;;;;;;;5032952;28;8852;-80
2023/08/21 14:05:08;;;;;;;;;0.00;0.00;;;;;;;;5028289;28;8883;-85
2023/08/21 14:07:36;;;;;;;;;0.00;0.00;;;;;;;;5027928;28;9679;-81
2023/08/21 14:10:05;;;;;;;;;0.00;0.00;;;;;;;;5033127;28;8886;-86
2023/08/21 14:12:35;;;;;;;;;0.00;0.00;;;;;;;;5030459;28;9007;-83
2023/08/21 14:15:05;;;;;;;;;0.00;0.00;;;;;;;;5027908;28;8880;-79
2023/08/21 14:17:35;;;;;;;;;0.00;0.00;;;;;;;;5028070;28;8858;-83
2023/08/21 14:20:03;;;;;;;;;0.00;0.00;;;;;;;;5027474;28;8874;-82
2023/08/21 14:22:30;;;;;;;;;0.00;0.00;;;;;;;;5028214;28;8981;-81
2023/08/21 14:25:00;;;;;;;;;0.00;0.00;;;;;;;;5027832;28;8898;-81
2023/08/21 14:27:27;;;;;;;;;0.40;0.00;;;;;;;;5028061;28;8965;-82
2023/08/21 14:29:55;;;;;;;;;0.00;0.00;;;;;;;;5021433;28;8894;-81
2023/08/21 14:33:18;;;;;;;;;1.00;0.00;;;;;;;;5027503;28;8793;-82
2023/08/21 14:35:47;;;;;;;;;0.20;0.00;;;;;;;;5027435;28;9294;-82
2023/08/21 14:38:14;;;;;;;;;0.40;0.00;;;;;;;;5026922;28;8875;-80
2023/08/21 14:40:41;;;;;;;;;0.00;0.00;;;;;;;;5028201;28;8848;-84
2023/08/21 14:43:08;;;;;;;;;0.00;0.00;;;;;;;;5027970;28;8848;-81
2023/08/21 14:45:41;;;;;;;;;0.00;0.00;;;;;;;;5029056;28;8874;-81
2023/08/21 14:48:08;;;;;;;;;0.00;0.00;;;;;;;;5029347;28;8937;-78
2023/08/21 14:50:35;;;;;;;;;0.00;0.00;;;;;;;;5033877;28;9021;-82
2023/08/21 14:53:04;;;;;;;;;0.00;0.00;;;;;;;;5034496;28;8864;-86
2023/08/21 14:55:31;;;;;;;;;0.00;0.00;;;;;;;;5034528;28;8851;-84
2023/08/21 14:57:59;;;;;;;;;0.00;0.00;;;;;;;;5034158;28;9638;-81
2023/08/21 15:00:26;;;;;;;;;0.00;0.00;;;;;;;;5030933;28;8778;-86
2023/08/21 15:02:53;;;;;;;;;0.00;0.00;;;;;;;;5027708;28;8874;-84
2023/08/21 15:05:21;;;;;;;;;0.00;0.00;;;;;;;;5028268;28;8872;-83
2023/08/21 15:07:49;;;;;;;;;0.00;0.00;;;;;;;;5030712;28;8876;-83